Halfway's Hourly Summary for Wednesday, March 15, 2017
Hour Temp
(f)
RH
(%)
Solar Rad.
(MJ/m2)
Rainfall
(in)
Wind
(mph)
3/15/2017 12:00 AM 49 55 0 0 13.62
3/15/2017 1:00 AM 45 59 0 0 12.01
3/15/2017 2:00 AM 43 62 0 0 11.93
3/15/2017 3:00 AM 41 63 0 0 12.47
3/15/2017 4:00 AM 40 64 0 0 12.09
3/15/2017 5:00 AM 37 64 0 0 10.22
3/15/2017 6:00 AM 34 70 0 0 9.92
3/15/2017 7:00 AM 31 72 0 0 8.77
3/15/2017 8:00 AM 30 73 0 0 6.84
3/15/2017 9:00 AM 31 66 0.27 0 5.67
3/15/2017 10:00 AM 35 58 0.95 0 6.79
3/15/2017 11:00 AM 40 54 1.65 0 7.3
3/15/2017 12:00 PM 46 48 2.27 0 6.55
3/15/2017 1:00 PM 52 45 2.74 0 8.04
3/15/2017 2:00 PM 57 42 2.81 0 8.82
3/15/2017 3:00 PM 61 39 3.02 0 7.86
3/15/2017 4:00 PM 65 35 2.77 0 7.6
3/15/2017 5:00 PM 67 33 2.23 0 9.16
3/15/2017 6:00 PM 69 32 1.7 0 11.48
3/15/2017 7:00 PM 68 32 0.96 0 12.51
3/15/2017 8:00 PM 65 35 0.24 0 9.1
3/15/2017 9:00 PM 57 43 0 0 6.01
3/15/2017 10:00 PM 53 56 0 0 6.88
3/15/2017 11:00 PM 51 64 0 0 6.57
Data Summary 48 52 21.61 0.00 9.09